createdAt,value
2019-02-06T00:02:19.573Z,82.35
2019-02-06T00:05:14.315Z,82.17
2019-02-06T00:07:55.792Z,82.31
2019-02-06T00:10:23.567Z,81.96
2019-02-06T00:13:06.980Z,81.96
2019-02-06T00:18:14.678Z,82.61
2019-02-06T00:20:42.393Z,82.61
2019-02-06T00:23:22.210Z,82.35
2019-02-06T00:25:39.400Z,82.74
2019-02-06T00:28:25.919Z,82.71
2019-02-06T00:31:12.401Z,83.08
2019-02-06T00:39:33.319Z,82.84
2019-02-06T00:42:19.782Z,83.34
2019-02-06T00:44:47.475Z,83.33
2019-02-06T00:50:21.960Z,82.50
2019-02-06T00:53:08.685Z,82.11
2019-02-06T00:55:37.998Z,82.11
2019-02-06T01:03:22.918Z,81.85
2019-02-06T01:06:09.607Z,82.17
2019-02-06T01:08:37.406Z,82.17
2019-02-06T01:11:07.097Z,81.41
2019-02-06T01:13:53.803Z,81.04
2019-02-06T01:16:55.415Z,81.04
2019-02-06T01:19:11.351Z,80.75
2019-02-06T01:21:57.863Z,80.60
2019-02-06T01:24:44.283Z,80.44
2019-02-06T01:27:32.684Z,80.60
2019-02-06T01:30:19.190Z,80.70
2019-02-06T01:33:05.984Z,80.56
2019-02-06T01:35:52.409Z,81.04
2019-02-06T01:38:38.910Z,80.83
2019-02-06T01:41:25.363Z,80.85
2019-02-06T01:46:44.457Z,81.18
2019-02-06T01:49:31.260Z,80.63
2019-02-06T01:52:19.315Z,81.20
2019-02-06T01:54:47.119Z,81.20
2019-02-06T01:57:33.638Z,81.06
2019-02-06T02:00:01.387Z,81.20
2019-02-06T02:02:29.060Z,81.33
2019-02-06T02:05:15.546Z,81.29
2019-02-06T02:07:43.327Z,81.84
2019-02-06T02:10:13.304Z,81.84
2019-02-06T02:12:59.814Z,81.29
2019-02-06T02:15:46.233Z,81.25
2019-02-06T02:18:28.000Z,81.25
2019-02-06T02:21:01.976Z,80.87
2019-02-06T02:23:32.226Z,80.87
2019-02-06T02:26:18.652Z,80.70
2019-02-06T02:28:47.144Z,80.70
2019-02-06T02:34:16.390Z,80.02
2019-02-06T02:36:51.350Z,79.74
2019-02-06T02:39:37.866Z,79.91
2019-02-06T02:42:24.579Z,79.53
2019-02-06T02:44:52.229Z,79.53
2019-02-06T02:47:20.045Z,79.73
2019-02-06T02:49:47.812Z,79.71
2019-02-06T02:52:17.212Z,79.61
2019-02-06T02:55:06.275Z,79.80
2019-02-06T02:57:53.055Z,79.04
2019-02-06T03:00:41.128Z,79.57
2019-02-06T03:08:54.274Z,78.62
2019-02-06T03:11:21.880Z,78.64
2019-02-06T03:14:08.398Z,78.59
2019-02-06T03:16:54.836Z,78.54
2019-02-06T03:19:41.797Z,78.63
2019-02-06T03:24:59.814Z,78.61
2019-02-06T03:27:47.931Z,79.33
2019-02-06T03:30:17.529Z,79.33
2019-02-06T03:33:05.547Z,78.91
2019-02-06T03:35:52.340Z,79.56
2019-02-06T03:38:21.830Z,79.56
2019-02-06T03:41:08.612Z,79.42
2019-02-06T03:43:55.081Z,79.26
2019-02-06T03:46:24.543Z,79.26
2019-02-06T03:48:54.242Z,79.37
2019-02-06T03:51:42.322Z,79.35
2019-02-06T03:56:43.250Z,79.64
2019-02-06T03:59:13.130Z,79.64
2019-02-06T04:01:59.646Z,79.64
2019-02-06T04:04:46.118Z,79.91
2019-02-06T04:07:13.845Z,79.91
2019-02-06T04:09:43.322Z,79.54
2019-02-06T04:12:13.139Z,79.47
2019-02-06T04:14:59.671Z,79.64
2019-02-06T04:17:27.309Z,79.64
2019-02-06T04:19:57.113Z,78.92
2019-02-06T04:22:43.655Z,79.66
2019-02-06T04:25:30.141Z,79.63
2019-02-06T04:27:57.894Z,79.63
2019-02-06T04:30:46.068Z,79.03
2019-02-06T04:33:13.820Z,79.03
2019-02-06T04:36:13.773Z,78.79
2019-02-06T04:38:50.076Z,78.88
2019-02-06T04:41:36.567Z,79.30
2019-02-06T04:44:23.043Z,79.48
2019-02-06T04:47:09.828Z,79.27
2019-02-06T04:49:39.559Z,79.27
2019-02-06T04:52:27.720Z,78.44
2019-02-06T04:55:14.163Z,78.46
2019-02-06T04:58:00.909Z,78.42
2019-02-06T05:00:47.343Z,78.45
2019-02-06T05:03:34.120Z,78.17
2019-02-06T05:06:03.893Z,78.17
2019-02-06T05:08:31.508Z,77.83
2019-02-06T05:10:59.191Z,77.52
2019-02-06T05:13:26.972Z,77.34
2019-02-06T05:16:13.502Z,77.83
2019-02-06T05:19:00.421Z,77.09
2019-02-06T05:21:29.738Z,77.09
2019-02-06T05:24:03.809Z,77.30
2019-02-06T05:26:44.701Z,77.20
2019-02-06T05:29:02.507Z,77.16
2019-02-06T05:31:50.620Z,77.16
2019-02-06T05:34:18.513Z,76.98
2019-02-06T05:37:04.998Z,76.92
2019-02-06T05:39:32.687Z,77.16
2019-02-06T05:42:20.818Z,77.16
2019-02-06T05:47:53.713Z,77.22
2019-02-06T05:50:21.360Z,77.22
2019-02-06T05:53:09.506Z,77.01
2019-02-06T05:55:37.178Z,77.05
2019-02-06T05:58:23.700Z,77.14
2019-02-06T06:04:02.103Z,77.15
2019-02-06T06:06:17.292Z,77.40
2019-02-06T06:09:03.796Z,77.40
2019-02-06T06:11:31.717Z,77.86
2019-02-06T06:14:19.919Z,77.86
2019-02-06T06:16:47.614Z,77.63
2019-02-06T06:19:35.691Z,77.55
2019-02-06T06:22:03.301Z,77.55
2019-02-06T06:24:49.799Z,77.24
2019-02-06T06:27:17.527Z,77.02
2019-02-06T06:29:45.295Z,76.68
2019-02-06T06:32:32.021Z,76.68
2019-02-06T06:35:01.203Z,76.68
2019-02-06T06:37:57.713Z,76.08
2019-02-06T06:40:37.404Z,76.39
2019-02-06T06:43:23.920Z,76.39
2019-02-06T06:45:54.243Z,76.21
2019-02-06T06:51:15.445Z,76.37
2019-02-06T06:54:14.044Z,75.90
2019-02-06T06:56:31.360Z,75.90
2019-02-06T06:59:19.564Z,75.54
2019-02-06T07:01:47.191Z,75.31
2019-02-06T07:04:36.320Z,75.25
2019-02-06T07:07:22.784Z,74.65
2019-02-06T07:10:12.097Z,74.55
2019-02-06T07:12:38.651Z,74.55
2019-02-06T07:15:25.152Z,75.43
2019-02-06T07:20:51.974Z,75.15
2019-02-06T07:23:19.712Z,75.46
2019-02-06T07:26:06.200Z,75.46
2019-02-06T07:28:52.644Z,75.18
2019-02-06T07:31:39.180Z,74.26
2019-02-06T07:34:07.027Z,74.26
2019-02-06T07:36:53.569Z,74.09
2019-02-06T07:39:21.237Z,73.72
2019-02-06T07:42:07.761Z,73.56
2019-02-06T07:44:54.238Z,73.42
2019-02-06T07:47:40.730Z,73.42
2019-02-06T07:50:27.224Z,73.10
2019-02-06T07:53:15.751Z,73.10
2019-02-06T07:56:02.213Z,72.27
2019-02-06T07:58:50.878Z,72.36
2019-02-06T08:04:11.251Z,71.84
2019-02-06T08:09:30.849Z,71.87
2019-02-06T08:11:58.549Z,71.82
2019-02-06T08:14:46.745Z,71.69
2019-02-06T08:17:16.268Z,71.53
2019-02-06T08:20:02.767Z,71.31
2019-02-06T08:22:30.393Z,70.85
2019-02-06T08:25:18.539Z,70.85
2019-02-06T08:27:46.298Z,70.74
2019-02-06T08:30:34.817Z,69.43
2019-02-06T08:33:02.732Z,69.58
2019-02-06T08:35:50.900Z,69.58
2019-02-06T08:38:18.754Z,69.08
2019-02-06T08:41:05.195Z,68.86
2019-02-06T08:43:33.168Z,68.75
2019-02-06T08:46:19.697Z,68.22
2019-02-06T08:48:49.278Z,68.41
2019-02-06T08:51:17.178Z,67.94
2019-02-06T08:54:03.718Z,67.94
2019-02-06T08:57:02.308Z,67.30
2019-02-06T08:59:38.322Z,67.30
2019-02-06T09:02:20.066Z,67.35
2019-02-06T09:05:07.657Z,66.77
2019-02-06T09:07:23.641Z,66.77
2019-02-06T09:10:22.007Z,66.85
2019-02-06T09:15:46.394Z,66.48
2019-02-06T09:18:14.287Z,66.63
2019-02-06T09:21:00.816Z,66.63
2019-02-06T09:23:47.286Z,66.10
2019-02-06T09:26:36.193Z,66.10
2019-02-06T09:29:03.328Z,65.94
2019-02-06T09:31:51.476Z,65.86
2019-02-06T09:34:37.972Z,65.85
2019-02-06T09:37:24.467Z,65.85
2019-02-06T09:39:52.336Z,65.84
2019-02-06T09:42:40.402Z,65.76
2019-02-06T09:48:00.264Z,65.69
2019-02-06T09:50:28.044Z,65.61
2019-02-06T09:53:16.193Z,65.55
2019-02-06T09:56:02.656Z,64.98
2019-02-06T09:58:49.142Z,64.98
2019-02-06T10:01:16.904Z,65.11
2019-02-06T10:04:06.010Z,64.31
2019-02-06T10:06:54.511Z,64.31
2019-02-06T10:09:42.318Z,64.47
2019-02-06T10:12:28.777Z,63.96
2019-02-06T10:15:15.314Z,63.58
2019-02-06T10:18:02.021Z,64.17
2019-02-06T10:20:50.154Z,63.20
2019-02-06T10:23:36.689Z,63.76
2019-02-06T10:26:24.766Z,63.76
2019-02-06T10:28:52.710Z,62.99
2019-02-06T10:31:20.841Z,62.41
2019-02-06T10:33:48.448Z,62.06
2019-02-06T10:36:16.332Z,61.10
2019-02-06T10:38:46.327Z,60.43
2019-02-06T10:41:25.333Z,59.54
2019-02-06T10:43:50.740Z,59.54
2019-02-06T10:46:21.473Z,58.31
2019-02-06T10:48:49.176Z,58.31
2019-02-06T10:51:22.231Z,56.13
2019-02-06T10:53:49.130Z,56.13
2019-02-06T10:56:17.085Z,56.22
2019-02-06T10:58:45.338Z,55.02
2019-02-06T11:01:13.077Z,55.02
2019-02-06T11:03:40.882Z,55.03
2019-02-06T11:06:08.830Z,55.25
2019-02-06T11:08:37.255Z,55.53
2019-02-06T11:11:05.191Z,55.53
2019-02-06T11:13:33.374Z,55.00
2019-02-06T11:16:02.749Z,55.00
2019-02-06T11:18:30.447Z,55.34
2019-02-06T11:21:01.525Z,54.88
2019-02-06T11:23:31.954Z,54.88
2019-02-06T11:25:59.670Z,54.45
2019-02-06T11:28:27.628Z,54.05
2019-02-06T11:30:57.086Z,54.36
2019-02-06T11:33:24.631Z,54.73
2019-02-06T11:35:52.675Z,54.73
2019-02-06T11:38:20.378Z,54.87
2019-02-06T11:40:48.017Z,54.87
2019-02-06T11:43:16.067Z,55.11
2019-02-06T11:45:43.697Z,55.48
2019-02-06T11:48:13.543Z,56.21
2019-02-06T11:50:47.040Z,56.69
2019-02-06T11:53:14.687Z,56.92
2019-02-06T11:55:42.407Z,57.63
2019-02-06T11:58:10.432Z,57.63
2019-02-06T12:00:48.331Z,57.55
2019-02-06T12:03:15.663Z,57.76
2019-02-06T12:05:46.568Z,57.70
2019-02-06T12:08:14.237Z,57.70
2019-02-06T12:10:47.114Z,57.95
2019-02-06T12:13:15.288Z,57.87
2019-02-06T12:15:42.901Z,57.84
2019-02-06T12:18:10.999Z,57.72
2019-02-06T12:20:39.163Z,57.50
2019-02-06T12:23:06.861Z,57.50
2019-02-06T12:25:34.673Z,57.20
2019-02-06T12:28:10.069Z,57.26
2019-02-06T12:30:38.851Z,57.25
2019-02-06T12:33:07.033Z,57.20
2019-02-06T12:35:34.663Z,57.22
2019-02-06T12:38:02.504Z,57.18
2019-02-06T12:40:30.527Z,57.48
2019-02-06T12:42:58.239Z,57.48
2019-02-06T12:45:26.839Z,57.36
2019-02-06T12:47:58.027Z,57.36
2019-02-06T12:50:25.663Z,56.98
2019-02-06T12:52:57.640Z,57.07
2019-02-06T12:55:25.758Z,57.07
2019-02-06T12:57:54.706Z,57.57
2019-02-06T13:00:23.973Z,57.57
2019-02-06T13:02:52.396Z,56.91
2019-02-06T13:05:20.190Z,56.40
2019-02-06T13:07:50.092Z,55.91
2019-02-06T13:10:18.044Z,56.35
2019-02-06T13:12:45.720Z,56.35
2019-02-06T13:15:13.386Z,56.21
2019-02-06T13:17:42.545Z,56.05
2019-02-06T13:20:10.612Z,56.05
2019-02-06T13:22:41.274Z,55.69
2019-02-06T13:25:14.290Z,55.20
2019-02-06T13:27:40.351Z,54.72
2019-02-06T13:30:08.640Z,54.50
2019-02-06T13:32:45.640Z,54.31
2019-02-06T13:35:14.956Z,54.31
2019-02-06T13:37:42.691Z,54.28
2019-02-06T13:40:10.759Z,54.32
2019-02-06T13:42:38.468Z,54.41
2019-02-06T13:45:06.168Z,54.77
2019-02-06T13:47:35.947Z,54.77
2019-02-06T13:50:04.196Z,54.86
2019-02-06T13:52:34.723Z,54.68
2019-02-06T13:55:02.823Z,54.63
2019-02-06T13:57:33.678Z,54.68
2019-02-06T14:00:02.239Z,54.76
2019-02-06T14:02:30.354Z,54.66
2019-02-06T14:05:00.320Z,54.60
2019-02-06T14:07:27.992Z,54.63
2019-02-06T14:09:58.509Z,54.75
2019-02-06T14:12:28.351Z,54.89
2019-02-06T14:15:03.627Z,55.40
2019-02-06T14:17:31.681Z,55.40
2019-02-06T14:20:01.607Z,55.53
2019-02-06T14:22:29.237Z,55.88
2019-02-06T14:24:57.348Z,56.04
2019-02-06T14:27:28.188Z,56.15
2019-02-06T14:29:55.830Z,56.15
2019-02-06T14:32:26.759Z,55.95
2019-02-06T14:34:54.593Z,55.92
2019-02-06T14:37:27.669Z,55.65
2019-02-06T14:39:57.498Z,56.10
2019-02-06T14:42:25.203Z,56.10
2019-02-06T14:44:56.069Z,55.58
2019-02-06T14:47:26.980Z,56.01
2019-02-06T14:49:54.672Z,55.53
2019-02-06T14:52:22.355Z,55.22
2019-02-06T14:54:54.557Z,55.82
2019-02-06T14:57:22.234Z,56.02
2019-02-06T14:59:49.944Z,56.02
2019-02-06T15:02:18.280Z,55.89
2019-02-06T15:04:45.941Z,56.05
2019-02-06T15:07:13.676Z,56.10
2019-02-06T15:09:41.591Z,56.06
2019-02-06T15:12:09.468Z,56.12
2019-02-06T15:14:45.719Z,56.45
2019-02-06T15:17:15.708Z,56.45
2019-02-06T15:19:43.381Z,56.80
2019-02-06T15:22:10.993Z,57.03
2019-02-06T15:24:44.169Z,57.13
2019-02-06T15:27:12.035Z,57.13
2019-02-06T15:29:39.750Z,57.57
2019-02-06T15:32:08.244Z,57.58
2019-02-06T15:34:35.882Z,57.96
2019-02-06T15:37:03.594Z,57.96
2019-02-06T15:39:31.538Z,57.87
2019-02-06T15:42:02.005Z,57.98
2019-02-06T15:44:29.619Z,57.98
2019-02-06T15:46:57.594Z,57.93
2019-02-06T15:49:27.002Z,57.93
2019-02-06T15:51:54.699Z,57.57
2019-02-06T15:54:26.370Z,57.89
2019-02-06T15:56:55.575Z,57.96
2019-02-06T15:59:24.892Z,57.92
2019-02-06T16:01:55.002Z,57.92
2019-02-06T16:04:53.510Z,57.57
2019-02-06T16:07:21.538Z,57.44
2019-02-06T16:09:49.258Z,57.27
2019-02-06T16:12:17.224Z,57.27
2019-02-06T16:14:45.696Z,57.47
2019-02-06T16:17:13.775Z,57.09
2019-02-06T16:19:41.894Z,57.55
2019-02-06T16:22:09.943Z,57.55
2019-02-06T16:24:37.689Z,57.67
2019-02-06T16:27:05.409Z,57.64
2019-02-06T16:29:33.292Z,57.64
2019-02-06T16:32:03.254Z,57.60
2019-02-06T16:34:31.214Z,57.66
2019-02-06T16:36:58.846Z,57.65
2019-02-06T16:39:29.585Z,57.64
2019-02-06T16:41:57.578Z,57.48
2019-02-06T16:44:25.579Z,57.65
2019-02-06T16:47:02.114Z,58.25
2019-02-06T16:49:30.638Z,58.25
2019-02-06T16:51:58.770Z,57.89
2019-02-06T16:54:28.049Z,57.72
2019-02-06T16:56:56.273Z,57.45
2019-02-06T16:59:23.918Z,57.45
2019-02-06T17:01:51.550Z,57.46
2019-02-06T17:04:22.162Z,57.31
2019-02-06T17:06:49.896Z,57.29
2019-02-06T17:09:17.542Z,57.45
2019-02-06T17:11:45.537Z,57.57
2019-02-06T17:14:15.855Z,57.66
2019-02-06T17:16:47.810Z,57.40
2019-02-06T17:19:16.353Z,57.21
2019-02-06T17:21:47.816Z,57.81
2019-02-06T17:24:17.197Z,57.66
2019-02-06T17:26:48.002Z,58.14
2019-02-06T17:29:15.713Z,58.14
2019-02-06T17:31:44.317Z,58.51
2019-02-06T17:34:18.339Z,58.51
2019-02-06T17:36:48.809Z,58.02
2019-02-06T17:39:23.785Z,58.13
2019-02-06T17:41:47.253Z,58.13
2019-02-06T17:44:16.920Z,58.62
2019-02-06T17:46:44.618Z,58.49
2019-02-06T17:49:12.558Z,58.49
2019-02-06T17:51:40.214Z,58.79
2019-02-06T17:54:07.904Z,58.79
2019-02-06T17:56:38.986Z,58.90
2019-02-06T17:59:09.170Z,58.91
2019-02-06T18:01:37.431Z,58.91
2019-02-06T18:04:05.871Z,59.10
2019-02-06T18:06:35.172Z,59.10
2019-02-06T18:09:05.474Z,59.17
2019-02-06T18:11:40.645Z,59.04
2019-02-06T18:14:14.001Z,59.04
2019-02-06T18:16:41.655Z,58.99
2019-02-06T18:19:13.350Z,59.44
2019-02-06T18:21:41.322Z,59.44
2019-02-06T18:24:09.281Z,59.75
2019-02-06T18:26:41.049Z,59.88
2019-02-06T18:29:12.196Z,59.96
2019-02-06T18:31:41.603Z,59.96
2019-02-06T18:34:14.805Z,59.64
2019-02-06T18:36:42.481Z,59.91
2019-02-06T18:39:19.653Z,59.74
2019-02-06T18:41:49.509Z,60.27
2019-02-06T18:44:17.297Z,59.74
2019-02-06T18:46:45.323Z,60.08
2019-02-06T18:49:16.957Z,59.68
2019-02-06T18:51:44.353Z,59.68
2019-02-06T18:54:15.465Z,59.94
2019-02-06T18:56:43.787Z,60.48
2019-02-06T18:59:11.412Z,60.48
2019-02-06T19:01:51.424Z,60.30
2019-02-06T19:04:22.134Z,60.30
2019-02-06T19:06:50.198Z,60.27
2019-02-06T19:09:22.826Z,60.25
2019-02-06T19:11:52.214Z,60.25
2019-02-06T19:14:27.246Z,60.50
2019-02-06T19:16:57.226Z,60.52
2019-02-06T19:19:25.827Z,60.34
2019-02-06T19:21:56.057Z,60.20
2019-02-06T19:24:25.689Z,60.20
2019-02-06T19:26:53.414Z,60.61
2019-02-06T19:29:21.438Z,60.69
2019-02-06T19:31:49.161Z,60.77
2019-02-06T19:34:19.998Z,60.77
2019-02-06T19:36:47.752Z,60.85
2019-02-06T19:39:28.764Z,60.89
2019-02-06T19:42:05.215Z,60.88
2019-02-06T19:44:53.980Z,60.80
2019-02-06T19:47:44.345Z,60.80
2019-02-06T19:50:25.810Z,60.93
2019-02-06T19:53:02.273Z,60.98
2019-02-06T19:58:21.559Z,61.16
2019-02-06T20:00:49.399Z,61.16
2019-02-06T20:03:37.582Z,61.25
2019-02-06T20:06:05.816Z,61.34
2019-02-06T20:08:53.520Z,61.59
2019-02-06T20:11:39.990Z,61.59
2019-02-06T20:14:26.886Z,61.52
2019-02-06T20:17:13.324Z,61.94
2019-02-06T20:20:00.331Z,61.94
2019-02-06T20:22:29.490Z,61.67
2019-02-06T20:25:17.642Z,61.76
2019-02-06T20:31:09.315Z,61.95
2019-02-06T20:36:28.949Z,62.35
2019-02-06T20:39:15.423Z,62.51
2019-02-06T20:42:02.185Z,62.51
2019-02-06T20:44:29.988Z,62.27
2019-02-06T20:47:18.113Z,62.34
2019-02-06T20:50:00.044Z,62.40
2019-02-06T20:52:34.097Z,62.48
2019-02-06T20:55:04.252Z,62.48
2019-02-06T20:57:53.211Z,62.48
2019-02-06T21:00:22.732Z,62.71
2019-02-06T21:02:57.795Z,62.99
2019-02-06T21:05:25.447Z,62.99
2019-02-06T21:07:53.107Z,62.93
2019-02-06T21:10:23.639Z,63.02
2019-02-06T21:12:51.268Z,63.09
2019-02-06T21:15:23.920Z,63.28
2019-02-06T21:17:54.525Z,63.34
2019-02-06T21:20:22.232Z,63.34
2019-02-06T21:22:52.174Z,63.66
2019-02-06T21:25:20.665Z,63.66
2019-02-06T21:27:48.270Z,63.60
2019-02-06T21:30:26.018Z,63.90
2019-02-06T21:32:56.895Z,63.72
2019-02-06T21:35:24.534Z,63.99
2019-02-06T21:38:11.315Z,63.99
2019-02-06T21:40:39.173Z,63.99
2019-02-06T21:43:08.589Z,64.10
2019-02-06T21:45:58.952Z,64.42
2019-02-06T21:51:35.052Z,64.25
2019-02-06T21:54:03.109Z,64.25
2019-02-06T21:56:32.515Z,64.39
2019-02-06T21:59:20.668Z,64.78
2019-02-06T22:04:53.663Z,64.85
2019-02-06T22:07:41.827Z,64.95
2019-02-06T22:10:29.993Z,65.14
2019-02-06T22:13:16.482Z,65.14
2019-02-06T22:15:44.219Z,65.14
2019-02-06T22:18:13.488Z,65.15
2019-02-06T22:20:59.885Z,65.47
2019-02-06T22:23:27.614Z,65.47
2019-02-06T22:29:02.252Z,65.51
2019-02-06T22:31:50.485Z,65.58
2019-02-06T22:34:18.054Z,65.69
2019-02-06T22:37:04.533Z,65.73
2019-02-06T22:39:32.283Z,65.77
2019-02-06T22:42:03.937Z,65.82
2019-02-06T22:47:05.406Z,65.62
2019-02-06T22:49:49.936Z,65.62
2019-02-06T22:52:26.737Z,66.00
2019-02-06T22:55:14.799Z,66.48
2019-02-06T22:58:01.302Z,66.48
2019-02-06T23:03:36.833Z,65.85
2019-02-06T23:06:06.404Z,65.85
2019-02-06T23:08:56.703Z,65.83
2019-02-06T23:11:24.406Z,66.47
2019-02-06T23:13:55.137Z,66.47
2019-02-06T23:16:41.594Z,66.30
2019-02-06T23:21:43.319Z,66.26
2019-02-06T23:24:30.180Z,66.23
2019-02-06T23:26:57.893Z,66.53
2019-02-06T23:29:44.386Z,66.53
2019-02-06T23:32:12.358Z,66.26
2019-02-06T23:37:31.285Z,66.27
2019-02-06T23:39:59.013Z,66.27
2019-02-06T23:42:45.473Z,66.54
2019-02-06T23:48:20.155Z,66.18
2019-02-06T23:50:59.645Z,66.18
2019-02-06T23:53:17.202Z,66.24
2019-02-06T23:56:05.269Z,66.17
2019-02-06T23:58:32.983Z,66.11
